Aullville, Missouri
Current Conditions -  °F | °C
As of 10:35 AM on Sunday 21 Dec 2014 (Local Time) from KRCM Reporting Station
Haze Haze  
Wind Chill: 35°   Ceiling: 600
Heat Index: 41°   Visibility: 4mi
Dew Point: 39°   Wind: 10mph
Humidity: 93%   Direction: 160°SSE
Pressure: 30.03"   Gusts: NA
Location:  39.0541°N, 93.6618°W
Report Text: KRCM 211635Z AUTO 16009KT 4SM BR OVC006 05/04 A3003 RMK AO2
Loading
Personal Weather Stations






























Interactive Weather Map New forecast layout! Learn more

10-Day Weather Forecast

Advertisements
Track Severe Weather on mobile